Tiempo atmosférico en la estación meteorológica de Prat de Lluçanès, Barcelona (700 m.)



Fecha
DESCASC
Temp. máxima en grados centígrados (hora)
DESCASC
Temp. mínima en grados centígrados (hora)
DESCASC
Temp. media en grados centígrados
DESCASC
Racha de viento máxima en m/sg (hora)
DESCASC
Velocidad máxima media en intervalos de 10 minutos(hora)
DESCASC
Precipitaciones diarias en mm
DESCASC
Precipitaciones de 00:00 a 06:00 en mm
DESCASC
Precipitaciones de 06:00 a 12:00 en mm
DESCASC
Precipitaciones de 12:00 a 18:00 en mm
DESCASC
Precipitaciones de 18:00 a 24:00 en mm
DESCASC

Gráficas

Temp. máximas Temp. mínimas Temp. medias Precipitaciones Rachas de viento máximas Velocidades máximas media en intervalos de 10 minutos

Datos horarios

Fecha y hora oficial Temperatura (ºC) Velocidad del viento (km/h) Dirección del viento Racha (km/h) Dirección de racha Precipitación (mm) Presión (hPa) Tendencia (hPa) Humedad (%)
2019-09-19 23:00:00 15.8 3 Nordeste 7 Nordeste 0 -- -- 95
2019-09-19 22:00:00 15.8 2 Noroeste 15 Sudoeste 0.8 -- -- 96
2019-09-19 21:00:00 16.2 5 Norte 15 Noroeste 1 -- -- 92
2019-09-19 20:00:00 15.9 5 Nordeste 20 Nordeste 4.8 -- -- 93
2019-09-19 19:00:00 17 15 Nordeste 25 Nordeste 1.4 -- -- 84
2019-09-19 18:00:00 18 11 Nordeste 29 Este 5.6 -- -- 80
2019-09-19 17:00:00 23.4 13 Nordeste 33 Nordeste 0 -- -- 52
2019-09-19 16:00:00 26.3 9 Sudoeste 19 Sudoeste 0 -- -- 45
2019-09-19 15:00:00 26.4 5 Sur 17 Sudoeste 0 -- -- 46
2019-09-19 14:00:00 24.8 6 Oeste 18 Sudoeste 0 -- -- 51
2019-09-19 13:00:00 23.5 9 Sudoeste 18 Sudoeste 0 -- -- 53
2019-09-19 12:00:00 22.8 4 Sudeste 10 Sudoeste 0 -- -- 58
2019-09-19 11:00:00 21.2 3 Sur 8 Sudoeste 0 -- -- 64
2019-09-19 10:00:00 18.1 0 Calma 5 Sur 0 -- -- 73
2019-09-19 09:00:00 16.2 0 Calma 4 Este 0 -- -- 78
2019-09-19 08:00:00 13.4 4 Norte 6 Noroeste 0 -- -- 90
2019-09-19 07:00:00 13.4 3 Noroeste 7 Noroeste 0 -- -- 89
2019-09-19 06:00:00 13.7 5 Noroeste 6 Noroeste 0 -- -- 88
2019-09-19 05:00:00 14 2 Noroeste 6 Noroeste 0 -- -- 86
2019-09-19 04:00:00 15.9 2 Norte 9 Nordeste 0 -- -- 75
2019-09-19 03:00:00 17.1 3 Nordeste 13 Nordeste 0 -- -- 70
2019-09-19 02:00:00 16.6 4 Nordeste 18 Nordeste 0 -- -- 73
2019-09-19 01:00:00 17 8 Nordeste 15 Norte 0 -- -- 73
2019-09-19 00:00:00 15.8 2 Norte 13 Este 0 -- -- 90
2019-09-18 23:00:00 16.3 4 Norte 22 Oeste 0 -- -- 85
2019-09-18 22:00:00 16.4 3 Nordeste 18 Oeste 0.2 -- -- 85
2019-09-18 21:00:00 16.3 6 Noroeste 21 Sudoeste 0 -- -- 87
2019-09-18 20:00:00 17.3 7 Norte 21 Noroeste 0.2 -- -- 78
2019-09-18 19:00:00 17.3 6 Nordeste 14 Nordeste 3.6 -- -- 80
2019-09-18 18:00:00 19.1 7 Norte 20 Este 0 -- -- 72
2019-09-18 17:00:00 20.1 10 Nordeste 22 Nordeste 3.2 -- -- 66
2019-09-18 16:00:00 22.8 5 Norte 30 Sudoeste 3.2 -- -- 77
2019-09-18 15:00:00 28.6 5 Sur 15 Este 0 -- -- 38
2019-09-18 14:00:00 28.5 6 Sur 19 Sur 0 -- -- 42
2019-09-18 13:00:00 27.6 4 Este 13 Sur 0 -- -- 44
2019-09-18 12:00:00 26 4 Sur 12 Sudoeste 0 -- -- 48
2019-09-18 11:00:00 24.9 4 Sur 11 Sur 0 -- -- 53
2019-09-18 10:00:00 23.6 0 Calma 5 Sudoeste 0 -- -- 54
2019-09-18 09:00:00 19.1 3 Noroeste 9 Norte 0 -- -- 68
2019-09-18 08:00:00 14.6 6 Noroeste 7 Noroeste 0 -- -- 83
2019-09-18 07:00:00 15.2 3 Noroeste 7 Noroeste 0 -- -- 82
2019-09-18 06:00:00 15.5 4 Noroeste 6 Norte 0 -- -- 82
2019-09-18 05:00:00 16.3 2 Norte 8 Sur 0 -- -- 80
2019-09-18 04:00:00 16.8 0 Calma 5 Noroeste 0 -- -- 81
2019-09-18 03:00:00 16 3 Norte 6 Noroeste 0 -- -- 81
2019-09-18 02:00:00 16.7 0 Calma 6 Norte 0 -- -- 78
2019-09-18 01:00:00 18.1 0 Calma 6 Sudoeste 0 -- -- 73
2019-09-18 00:00:00 18.7 3 Noroeste 6 Noroeste 0 -- -- 71
2019-09-17 23:00:00 18.1 4 Noroeste 7 Oeste 0 -- -- 72
2019-09-17 22:00:00 20 5 Oeste 7 Oeste 0 -- -- 66
2019-09-17 21:00:00 21.6 3 Oeste 8 Sudoeste 0 -- -- 60
2019-09-15 18:00:00 27.2 9 Este 24 Este 0 -- -- 39
2019-09-15 17:00:00 27.8 5 Este 23 Este 0 -- -- 36
2019-09-15 16:00:00 27.3 9 Este 18 Este 0 -- -- 37
2019-09-15 15:00:00 26.7 7 Nordeste 20 Sudeste 0 -- -- 39
2019-09-15 14:00:00 25.7 5 Sudeste 22 Sudeste 0 -- -- 42
2019-09-15 13:00:00 23.8 10 Este 24 Este 0 -- -- 48
2019-09-15 12:00:00 24.6 9 Este 18 Este 0 -- -- 44
2019-09-15 11:00:00 23 8 Este 22 Este 0 -- -- 49
2019-09-15 10:00:00 20.9 8 Nordeste 19 Nordeste 0 -- -- 55
2019-09-15 09:00:00 19.1 10 Nordeste 17 Nordeste 0 -- -- 60
2019-09-15 08:00:00 17.6 6 Norte 17 Nordeste 0 -- -- 67
2019-09-15 07:00:00 17.6 9 Nordeste 17 Nordeste 0 -- -- 68
2019-09-15 06:00:00 17.3 6 Nordeste 18 Nordeste 0 -- -- 70
2019-09-15 05:00:00 17 8 Nordeste 18 Nordeste 0 -- -- 71
2019-09-15 04:00:00 16.7 7 Nordeste 17 Nordeste 0.6 -- -- 69
2019-09-15 03:00:00 17.9 10 Este 22 Este 0 -- -- 56
2019-09-15 02:00:00 20 10 Este 27 Nordeste 0 -- -- 49
2019-09-15 01:00:00 20.1 8 Norte 15 Norte 0 -- -- 45
2019-09-15 00:00:00 20.3 9 Nordeste 18 Este 0 -- -- 48
2019-09-14 23:00:00 20.3 9 Este 18 Este 0 -- -- 49
2019-09-14 22:00:00 20.9 9 Nordeste 16 Nordeste 0 -- -- 49
2019-09-14 21:00:00 21.5 8 Nordeste 15 Nordeste 0 -- -- 46
2019-09-14 20:00:00 22.7 7 Nordeste 22 Este 0 -- -- 48
2019-09-14 19:00:00 24 8 Este 21 Este 0 -- -- 44
2019-09-14 18:00:00 24.7 8 Este 21 Este 0 -- -- 44
2019-09-14 17:00:00 25.3 10 Este 22 Este 0 -- -- 40
2019-09-14 16:00:00 26.1 7 Este 20 Este 0 -- -- 40
2019-09-14 15:00:00 26.7 9 Este 24 Este 0 -- -- 37
2019-09-14 14:00:00 26.9 9 Este 24 Este 0 -- -- 38
2019-09-14 13:00:00 25.9 9 Este 26 Este 0 -- -- 38
2019-09-14 12:00:00 24.8 12 Este 26 Este 0 -- -- 42
2019-09-14 11:00:00 24.6 10 Este 18 Nordeste 0 -- -- 41
2019-09-14 10:00:00 21.9 9 Nordeste 20 Nordeste 0 -- -- 48
2019-09-14 09:00:00 20.2 9 Nordeste 19 Este 0 -- -- 53
2019-09-14 08:00:00 19.1 7 Este 17 Nordeste 0 -- -- 57
2019-09-14 07:00:00 18.5 2 Norte 18 Nordeste 0 -- -- 59
2019-09-14 06:00:00 19.3 10 Nordeste 20 Nordeste 0 -- -- 52
2019-09-14 05:00:00 19.7 10 Nordeste 23 Nordeste 0 -- -- 50
2019-09-14 04:00:00 18 7 Nordeste 19 Nordeste 0 -- -- 60
2019-09-14 03:00:00 17.9 14 Nordeste 24 Nordeste 0.2 -- -- 63
2019-09-14 02:00:00 17 6 Norte 10 Norte 0 -- -- 68
2019-09-14 01:00:00 16.4 2 Norte 15 Noroeste 0.2 -- -- 78
2019-09-14 00:00:00 18.7 6 Noroeste 13 Oeste 0 -- -- 64
2019-09-13 23:00:00 20.2 0 Calma 13 Nordeste 0 -- -- 54
2019-09-13 22:00:00 18.7 4 Nordeste 9 Nordeste 0 -- -- 58
2019-09-13 21:00:00 19.8 0 Calma 10 Este 0 -- -- 60
2019-09-13 20:00:00 22.9 4 Este 19 Este 0 -- -- 44
2019-09-13 19:00:00 24.5 8 Este 19 Nordeste 0 -- -- 40
2019-09-13 18:00:00 24.2 9 Nordeste 24 Nordeste 0 -- -- 42
2019-09-13 17:00:00 23.6 10 Este 20 Nordeste 0 -- -- 44
2019-09-13 16:00:00 24.2 10 Nordeste 22 Este 0 -- -- 40
2019-09-13 15:00:00 24.2 10 Nordeste 22 Nordeste 0 -- -- 42
2019-09-13 14:00:00 23.4 9 Nordeste 17 Este 0 -- -- 44
2019-09-13 13:00:00 22.9 4 Sudeste 13 Este 0 -- -- 47
2019-09-13 12:00:00 22.4 8 Este 19 Este 0 -- -- 45
2019-09-13 11:00:00 23.4 10 Nordeste 31 Nordeste 0 -- -- 41
2019-09-13 10:00:00 22 13 Nordeste 29 Nordeste 0 -- -- 43
2019-09-13 09:00:00 18.7 7 Nordeste 15 Nordeste 0 -- -- 51
2019-09-13 08:00:00 17.6 5 Nordeste 13 Norte 0 -- -- 50
2019-09-13 07:00:00 17.5 6 Norte 15 Norte 0 -- -- 49
2019-09-13 06:00:00 17.2 5 Nordeste 11 Nordeste 0 -- -- 47
2019-09-13 05:00:00 18 6 Nordeste 16 Nordeste 0 -- -- 44
2019-09-13 04:00:00 17.4 5 Norte 11 Norte 0 -- -- 46
2019-09-13 03:00:00 15.9 6 Norte 10 Nordeste 0 -- -- 52
2019-09-13 02:00:00 14.1 2 Norte 5 Noroeste 0 -- -- 70
2019-09-13 01:00:00 17.3 3 Norte 9 Norte 0 -- -- 58
2019-09-13 00:00:00 18.4 3 Nordeste 13 Nordeste 0 -- -- 55
2019-09-12 23:00:00 19.5 6 Nordeste 14 Nordeste 0 -- -- 50
2019-09-12 22:00:00 20.5 9 Nordeste 15 Nordeste 0 -- -- 46
2019-09-12 21:00:00 21.4 6 Nordeste 15 Este 0 -- -- 44
2019-09-12 20:00:00 23.1 6 Este 20 Este 0 -- -- 41
2019-09-12 19:00:00 25.9 5 Sudeste 19 Este 0 -- -- 35
2019-09-12 18:00:00 26.7 6 Este 21 Nordeste 0 -- -- 35
2019-09-12 17:00:00 27.9 4 Este 16 Este 0 -- -- 33
2019-09-12 16:00:00 28 6 Este 14 Este 0 -- -- 31
2019-09-12 15:00:00 27.4 7 Sudoeste 13 Este 0 -- -- 32
2019-09-12 14:00:00 27 3 Sur 23 Este 0 -- -- 35
2019-09-12 13:00:00 25.1 3 Nordeste 12 Noroeste 0 -- -- 38
2019-09-12 12:00:00 23.1 8 Noroeste 14 Noroeste 0 -- -- 45
2019-09-12 11:00:00 22.4 5 Oeste 11 Sudoeste 0 -- -- 47
2019-09-12 10:00:00 20.4 3 Norte 6 Nordeste 0 -- -- 51
2019-09-12 09:00:00 15.2 0 Calma 6 Nordeste 0 -- -- 68
2019-09-12 08:00:00 11.3 4 Norte 7 Noroeste 0 -- -- 84
2019-09-12 07:00:00 11.2 5 Noroeste 8 Noroeste 0 -- -- 83
2019-09-12 06:00:00 12 3 Noroeste 7 Norte 0 -- -- 80
2019-09-12 05:00:00 11.7 4 Noroeste 8 Noroeste 0 -- -- 83
2019-09-12 04:00:00 12.7 4 Norte 7 Noroeste 0 -- -- 80
2019-09-12 03:00:00 14.9 3 Nordeste 9 Nordeste 0 -- -- 70
2019-09-12 02:00:00 13.6 4 Nordeste 6 Nordeste 0 -- -- 79
2019-09-12 01:00:00 17 5 Nordeste 11 Nordeste 0 -- -- 62
2019-09-12 00:00:00 16.5 3 Norte 10 Norte 0 -- -- 65
2019-09-11 23:00:00 16.1 3 Norte 10 Nordeste 0 -- -- 71
2019-09-11 22:00:00 17.5 4 Nordeste 12 Nordeste 0 -- -- 64
2019-09-11 21:00:00 18.5 6 Nordeste 16 Este 0 -- -- 61
2019-09-11 20:00:00 19.6 9 Este 19 Este 0 -- -- 57
2019-09-11 19:00:00 21.3 12 Este 29 Nordeste 0 -- -- 54
2019-09-11 18:00:00 21.9 15 Nordeste 36 Este 0 -- -- 51
2019-09-11 17:00:00 22.3 14 Nordeste 33 Nordeste 0 -- -- 52
2019-09-11 16:00:00 21.6 16 Nordeste 29 Este 0 -- -- 53
2019-09-11 15:00:00 20 15 Nordeste 33 Este 0 -- -- 59
2019-09-11 14:00:00 18.4 12 Nordeste 28 Este 0 -- -- 64
2019-09-11 13:00:00 18.3 13 Nordeste 30 Nordeste 0 -- -- 67
2019-09-11 12:00:00 17.5 17 Nordeste 33 Nordeste 0 -- -- 72
2019-09-11 11:00:00 15.8 16 Nordeste 34 Nordeste 0.2 -- -- 76
2019-09-11 10:00:00 15.9 10 Nordeste 31 Este 0 -- -- 75
2019-09-11 09:00:00 15.5 13 Nordeste 30 Nordeste 0 -- -- 75
2019-09-11 08:00:00 14.6 9 Nordeste 42 Nordeste 0.2 -- -- 80
2019-09-11 07:00:00 15.5 14 Nordeste 40 Nordeste 0 -- -- 69
2019-09-11 06:00:00 14.5 10 Nordeste 27 Norte 0 -- -- 70
2019-09-11 05:00:00 14.5 15 Nordeste 32 Nordeste 0 -- -- 70
2019-09-11 04:00:00 13.7 6 Norte 17 Nordeste 0 -- -- 74
2019-09-11 03:00:00 13.8 8 Nordeste 26 Nordeste 0 -- -- 72
2019-09-11 02:00:00 13.6 14 Nordeste 28 Nordeste 0 -- -- 73
2019-09-11 01:00:00 11.6 3 Norte 12 Nordeste 0 -- -- 89
2019-09-11 00:00:00 11.7 4 Nordeste 11 Este 0 -- -- 87
2019-09-10 23:00:00 11.8 9 Nordeste 14 Este 0.2 -- -- 84
2019-09-10 22:00:00 11.9 4 Nordeste 9 Nordeste 0.2 -- -- 90
2019-09-10 21:00:00 12 3 Nordeste 8 Este 0.6 -- -- 93
2019-09-10 20:00:00 12.2 5 Nordeste 12 Nordeste 0.4 -- -- 94
2019-09-10 19:00:00 12.7 3 Norte 9 Noroeste 0.8 -- -- 92
2019-09-10 18:00:00 13.3 2 Sudoeste 5 Este 0.2 -- -- 87
2019-09-10 17:00:00 13.3 4 Nordeste 10 Nordeste 0 -- -- 85
2019-09-10 16:00:00 12.8 4 Nordeste 14 Nordeste 0.4 -- -- 89
2019-09-10 15:00:00 11.9 7 Nordeste 13 Nordeste 0.4 -- -- 89
2019-09-10 14:00:00 11.8 10 Noroeste 17 Norte 1 -- -- 89
2019-09-10 13:00:00 12.7 4 Nordeste 11 Este 0.2 -- -- 90
2019-09-10 12:00:00 12.9 5 Oeste 9 Oeste 0.2 -- -- 92
2019-09-10 11:00:00 12.6 3 Norte 15 Nordeste 0.2 -- -- 90
2019-09-10 10:00:00 12 8 Nordeste 16 Este 0 -- -- 90
2019-09-10 09:00:00 11.3 5 Nordeste 15 Nordeste 0 -- -- 90
2019-09-10 08:00:00 11 6 Nordeste 27 Noroeste 5.4 -- -- 89
2019-09-10 07:00:00 13.7 15 Este 26 Este 0 -- -- 82
2019-09-10 06:00:00 14.2 14 Este 27 Este 0 -- -- 87
2019-09-10 05:00:00 15.6 15 Este 28 Este 0 -- -- 85
2019-09-10 04:00:00 16.6 15 Este 28 Este 0 -- -- 88
2019-09-10 03:00:00 17.1 8 Este 17 Este 0 -- -- 86
2019-09-10 02:00:00 17.7 4 Norte 9 Norte 0 -- -- 88
2019-09-10 01:00:00 17.8 2 Norte 6 Nordeste 0 -- -- 88
2019-09-10 00:00:00 18.1 0 Calma 4 Sudoeste 0 -- -- 87
2019-09-09 23:00:00 18.3 0 Calma 8 Sur 0 -- -- 86
2019-09-09 22:00:00 18.4 3 Sur 15 Sur 0 -- -- 84
2019-09-09 21:00:00 19.3 4 Sur 13 Sur 0 -- -- 79
2019-09-09 20:00:00 20.6 4 Sur 17 Sudoeste 0 -- -- 70
2019-09-09 19:00:00 22.4 11 Sur 24 Sudoeste 0 -- -- 61
2019-09-09 18:00:00 23.9 12 Sudoeste 28 Sur 0 -- -- 46
2019-09-09 17:00:00 24.1 12 Sudoeste 28 Sur 0 -- -- 44
2019-09-09 16:00:00 24 8 Sur 31 Sur 0 -- -- 52
2019-09-09 15:00:00 22.2 14 Sur 27 Sur 0 -- -- 58
2019-09-09 14:00:00 21.9 15 Sur 29 Sudoeste 0 -- -- 56
2019-09-09 13:00:00 20.7 12 Sudoeste 29 Sudoeste 0 -- -- 60
2019-09-09 12:00:00 19.7 14 Sudoeste 23 Sudoeste 0 -- -- 65
2019-09-09 11:00:00 17.8 7 Sudoeste 16 Oeste 0 -- -- 75
2019-09-09 10:00:00 16.2 6 Oeste 11 Oeste 0 -- -- 84
2019-09-09 09:00:00 15.7 7 Sudoeste 10 Sudoeste 0 -- -- 88
2019-09-09 08:00:00 14.8 3 Oeste 6 Noroeste 0 -- -- 91
2019-09-09 07:00:00 14.5 4 Noroeste 6 Noroeste 0 -- -- 93
2019-09-09 06:00:00 14.3 0 Calma 3 Oeste 0 -- -- 90
2019-09-09 05:00:00 15.4 0 Calma 5 Este 0 -- -- 87
2019-09-09 04:00:00 15.5 0 Calma 5 Este 0 -- -- 86
2019-09-09 03:00:00 15.8 2 Sudeste 5 Sudeste 0 -- -- 86
2019-09-09 02:00:00 15.7 0 Calma 3 Este 0 -- -- 85
2019-09-09 01:00:00 15.8 0 Calma 4 Este 0 -- -- 85
2019-09-09 00:00:00 15.9 0 Calma 4 Sudeste 0 -- -- 85
2019-09-08 23:00:00 16.1 2 Sur 7 Este 0 -- -- 84
2019-09-08 22:00:00 16.3 5 Este 10 Este 0 -- -- 83
2019-09-08 21:00:00 16.8 2 Sur 10 Sur 0 -- -- 80
2019-09-08 20:00:00 19 5 Sur 20 Sur 0 -- -- 72
2019-09-08 19:00:00 21.5 6 Sur 23 Sudoeste 0 -- -- 63
2019-09-08 18:00:00 22.5 8 Sur 22 Sur 0 -- -- 56
2019-09-08 17:00:00 23.4 8 Sur 23 Sur 0 -- -- 55
2019-09-08 16:00:00 24.5 7 Sur 21 Sudoeste 0 -- -- 40
2019-09-08 15:00:00 23 12 Sudoeste 26 Sudoeste 0 -- -- 42
2019-09-08 14:00:00 22.2 14 Sudoeste 25 Sudoeste 0 -- -- 38
2019-09-08 13:00:00 20.8 5 Sur 18 Sur 0 -- -- 54
2019-09-08 12:00:00 19.3 4 Sur 17 Sudoeste 0 -- -- 66
2019-09-08 11:00:00 16.7 5 Sur 12 Sur 0 -- -- 76
2019-09-08 10:00:00 14.8 3 Sur 7 Sudoeste 0 -- -- 88
2019-09-08 09:00:00 13.4 0 Calma 6 Sur 0 -- -- 93
2019-09-08 08:00:00 12.4 4 Sur 6 Sudoeste 0 -- -- 98
2019-09-08 07:00:00 11.2 3 Noroeste 5 Noroeste 0 -- -- 96
2019-09-08 06:00:00 11.7 5 Noroeste 6 Noroeste 0 -- -- 94
2019-09-08 05:00:00 12.4 4 Noroeste 5 Norte 0 -- -- 93
2019-09-08 04:00:00 13.1 4 Noroeste 5 Norte 0 -- -- 90
2019-09-08 03:00:00 13.5 3 Noroeste 5 Norte 0 -- -- 87
2019-09-08 02:00:00 14.5 3 Norte 9 Nordeste 0 -- -- 83
2019-09-08 01:00:00 16 3 Norte 12 Nordeste 0 -- -- 79
2019-09-08 00:00:00 16.8 2 Norte 6 Nordeste 0 -- -- 82
2019-09-07 23:00:00 17.2 0 Calma 4 Este 0 -- -- 84
2019-09-07 22:00:00 17.5 2 Sur 8 Este 0 -- -- 80
2019-09-07 21:00:00 18.4 3 Sur 10 Sur 0 -- -- 76
2019-09-07 20:00:00 21.2 4 Sur 16 Sudeste 0 -- -- 61
2019-09-07 19:00:00 24 8 Sudoeste 17 Sudoeste 0 -- -- 28
2019-09-07 18:00:00 24.5 5 Sur 19 Sur 0 -- -- 29
2019-09-07 17:00:00 24.7 5 Sur 17 Sur 0 -- -- 29
2019-09-07 16:00:00 24 5 Sudoeste 18 Sudoeste 0 -- -- 32
2019-09-07 15:00:00 23.4 4 Sur 19 Sur 0 -- -- 31
2019-09-07 14:00:00 21.6 5 Sudoeste 18 Sudoeste 0 -- -- 39
2019-09-07 13:00:00 20.1 4 Este 15 Sudoeste 0 -- -- 48
2019-09-07 12:00:00 18.5 5 Sur 10 Sudoeste 0 -- -- 61
2019-09-07 11:00:00 16.6 3 Sur 8 Nordeste 0 -- -- 66
2019-09-07 10:00:00 14.3 2 Noroeste 6 Sudoeste 0 -- -- 73
2019-09-07 09:00:00 12.2 2 Este 6 Este 0 -- -- 83
2019-09-07 08:00:00 9.2 0 Calma 5 Norte 0 -- -- 94
2019-09-07 07:00:00 10.1 0 Calma 6 Noroeste 0 -- -- 92
2019-09-07 06:00:00 11.2 3 Sur 6 Sudoeste 0 -- -- 90
2019-09-07 05:00:00 11.7 3 Norte 5 Noroeste 0 -- -- 90
2019-09-07 04:00:00 12.4 4 Noroeste 5 Noroeste 0 -- -- 87
2019-09-07 03:00:00 13.6 4 Noroeste 5 Norte 0 -- -- 83
2019-09-07 02:00:00 14.3 2 Norte 8 Nordeste 0 -- -- 82
2019-09-07 01:00:00 15 3 Nordeste 12 Nordeste 0 -- -- 76
2019-09-07 00:00:00 15.8 6 Nordeste 13 Nordeste 0 -- -- 71
2019-09-06 23:00:00 16.3 6 Nordeste 12 Nordeste 0 -- -- 67
2019-09-06 22:00:00 17.1 4 Este 9 Este 0 -- -- 64
2019-09-06 21:00:00 18.3 3 Sur 7 Sur 0 -- -- 57
2019-09-06 20:00:00 21.5 4 Sur 16 Sudoeste 0 -- -- 33
2019-09-06 19:00:00 23.3 9 Sur 20 Oeste 0 -- -- 30
2019-09-06 18:00:00 23.9 10 Oeste 22 Sudoeste 0 -- -- 30
2019-09-06 17:00:00 24.2 9 Sur 23 Sur 0 -- -- 30
2019-09-06 16:00:00 23.6 8 Sudoeste 19 Sudoeste 0 -- -- 29
2019-09-06 15:00:00 22.5 9 Sudoeste 26 Sudoeste 0 -- -- 34
2019-09-06 14:00:00 21.1 6 Sudoeste 18 Oeste 0 -- -- 42
2019-09-06 13:00:00 19.1 6 Sur 14 Sur 0 -- -- 47
2019-09-06 12:00:00 17.2 6 Sur 15 Sur 0 -- -- 52
2019-09-06 11:00:00 15.6 4 Sudoeste 9 Sudoeste 0 -- -- 67
2019-09-06 10:00:00 13.9 3 Sudeste 6 Sudoeste 0 -- -- 70
2019-09-06 09:00:00 11.5 3 Sudoeste 5 Sudoeste 0 -- -- 78
2019-09-06 08:00:00 8.4 0 Calma 4 Noroeste 0 -- -- 90
2019-09-06 07:00:00 8.5 3 Noroeste 5 Oeste 0 -- -- 89
2019-09-06 06:00:00 10.2 2 Sur 8 Oeste 0 -- -- 80
2019-09-06 05:00:00 10.8 3 Oeste 6 Oeste 0 -- -- 80
2019-09-06 04:00:00 11.1 0 Calma 6 Norte 0 -- -- 87
2019-09-06 03:00:00 12.3 4 Noroeste 5 Norte 0 -- -- 85
2019-09-06 02:00:00 14.4 0 Calma 10 Sudoeste 0 -- -- 79
2019-09-06 01:00:00 16.2 6 Sur 16 Sudoeste 0 -- -- 89
2019-09-06 00:00:00 17 2 Sur 5 Sur 0 -- -- 86
2019-09-05 23:00:00 16.9 3 Sur 9 Este 0 -- -- 84
2019-09-05 22:00:00 18 3 Nordeste 15 Este 0 -- -- 79
2019-09-05 21:00:00 18 10 Este 23 Este 0 -- -- 78
2019-09-05 20:00:00 19.3 9 Nordeste 24 Este 0 -- -- 70
2019-09-05 19:00:00 22.8 5 Este 21 Sur 0 -- -- 59
2019-09-05 18:00:00 25.3 10 Sur 34 Sudoeste 0 -- -- 45
2019-09-05 17:00:00 24.6 10 Sur 26 Sudoeste 0 -- -- 46
2019-09-05 16:00:00 23.9 4 Sur 24 Sudoeste 0 -- -- 50
2019-09-05 15:00:00 24 11 Sudoeste 22 Oeste 0 -- -- 50
2019-09-05 14:00:00 23.5 8 Sur 21 Sur 0 -- -- 56
2019-09-05 13:00:00 21.3 8 Sudoeste 18 Sudoeste 0 -- -- 63
2019-09-05 12:00:00 19.9 4 Sur 11 Sur 0 -- -- 69
2019-09-05 11:00:00 17.9 5 Sudoeste 10 Sudoeste 0 -- -- 75
2019-09-05 10:00:00 16 2 Sur 6 Sur 0 -- -- 79
2019-09-05 09:00:00 15.4 4 Sudoeste 8 Sur 0 -- -- 83
2019-09-05 08:00:00 15.3 3 Sudoeste 9 Sudoeste 0 -- -- 81
2019-09-05 07:00:00 15.6 5 Sudoeste 13 Sudoeste 0 -- -- 79
2019-09-05 06:00:00 16.4 6 Sudoeste 11 Oeste 0 -- -- 84
2019-09-05 05:00:00 17 3 Oeste 12 Sur 0 -- -- 87
2019-09-05 04:00:00 15.7 0 Calma 4 Noroeste 0 -- -- 90
2019-09-05 03:00:00 15.7 4 Noroeste 6 Norte 0 -- -- 90
2019-09-05 02:00:00 16.5 0 Calma 6 Noroeste 0 -- -- 86
2019-09-05 01:00:00 17.3 3 Noroeste 5 Noroeste 0 -- -- 84
2019-09-05 00:00:00 19.6 3 Norte 9 Nordeste 0 -- -- 75
2019-09-04 23:00:00 20 4 Nordeste 8 Nordeste 0 -- -- 74
2019-09-04 22:00:00 21.3 3 Nordeste 9 Este 0 -- -- 70
2019-09-04 21:00:00 22.1 6 Este 19 Este 0 -- -- 66
2019-09-04 20:00:00 25.2 3 Sur 15 Sudoeste 0 -- -- 51
2019-09-04 19:00:00 27.7 5 Sur 22 Sudoeste 0 -- -- 45
2019-09-04 18:00:00 29.2 11 Sudoeste 22 Sudoeste 0 -- -- 35
2019-09-04 17:00:00 29.3 5 Sur 19 Sur 0 -- -- 37
2019-09-04 16:00:00 28.8 8 Oeste 18 Sur 0 -- -- 37
2019-09-04 15:00:00 27.7 4 Noroeste 17 Sudoeste 0 -- -- 41
2019-09-04 14:00:00 26.5 8 Oeste 23 Sur 0 -- -- 42
2019-09-04 13:00:00 25.6 6 Sur 18 Sudoeste 0 -- -- 43
2019-09-04 12:00:00 23.8 5 Sur 13 Sur 0 -- -- 58
2019-09-04 11:00:00 22.3 3 Nordeste 10 Este 0 -- -- 63
2019-09-04 10:00:00 20.9 3 Este 6 Este 0 -- -- 71
2019-09-04 09:00:00 17.5 0 Calma 9 Nordeste 0 -- -- 88
2019-09-04 08:00:00 13.8 4 Noroeste 6 Noroeste 0 -- -- 98
2019-09-04 07:00:00 13.9 5 Norte 6 Noroeste 0 -- -- 96
2019-09-04 06:00:00 14.4 4 Norte 6 Norte 0 -- -- 97
2019-09-04 05:00:00 14.3 3 Norte 6 Noroeste 0 -- -- 97
2019-09-04 04:00:00 14.4 4 Noroeste 5 Noroeste 0 -- -- 97
2019-09-04 03:00:00 14.8 3 Norte 6 Noroeste 0 -- -- 96
2019-09-04 02:00:00 15.7 4 Noroeste 5 Noroeste 0 -- -- 93
2019-09-04 01:00:00 17 0 Calma 9 Noroeste 0 -- -- 91
2019-09-04 00:00:00 18 5 Noroeste 9 Noroeste 0 -- -- 88
2019-09-03 23:00:00 17.5 2 Noroeste 5 Noroeste 0 -- -- 90
2019-09-03 22:00:00 18.6 4 Noroeste 5 Noroeste 0 -- -- 86
2019-09-03 21:00:00 21.2 0 Calma 14 Sudoeste 0 -- -- 74
2019-09-03 20:00:00 23.1 8 Sur 17 Sudoeste 0 -- -- 65
2019-09-03 19:00:00 26.8 7 Sur 13 Sur 0 -- -- 31
2019-09-03 18:00:00 27.3 3 Este 12 Sur 0 -- -- 34
2019-09-03 17:00:00 27.5 5 Sur 13 Sur 0 -- -- 36
2019-09-03 16:00:00 26.9 3 Sudoeste 12 Sur 0 -- -- 34
2019-09-03 15:00:00 26 5 Sur 15 Oeste 0 -- -- 38
2019-09-03 14:00:00 24.6 4 Sur 13 Sudoeste 0 -- -- 46
2019-09-03 13:00:00 23.3 4 Sur 11 Este 0 -- -- 55
2019-09-03 12:00:00 20.9 5 Oeste 10 Oeste 0 -- -- 64
2019-09-03 11:00:00 18.5 3 Sudoeste 8 Sudoeste 0 -- -- 81
2019-09-03 10:00:00 15.6 2 Sudeste 8 Este 0 -- -- 93
2019-09-03 09:00:00 14.6 2 Sudeste 6 Este 0 -- -- 92
2019-09-03 08:00:00 14.2 3 Este 5 Este 0 -- -- 95
2019-09-03 07:00:00 14.7 2 Noroeste 10 Sudoeste 0 -- -- 93
2019-09-03 06:00:00 15.9 6 Oeste 10 Oeste 0 -- -- 94
2019-09-03 05:00:00 16.5 2 Sur 4 Noroeste 0 -- -- 97
2019-09-03 04:00:00 15.9 0 Calma 6 Noroeste 0 -- -- 96
2019-09-03 03:00:00 16.8 0 Calma 3 Sudoeste 0 -- -- 95
2019-09-03 02:00:00 16.3 0 Calma 4 Noroeste 0 -- -- 97
2019-09-03 01:00:00 16.3 2 Norte 5 Noroeste 0 -- -- 95
2019-09-03 00:00:00 17.3 2 Noroeste 4 Este 0 -- -- 92
2019-09-02 23:00:00 18.3 3 Este 9 Este 0 -- -- 88
2019-09-02 22:00:00 18.8 5 Nordeste 12 Este 0 -- -- 87
2019-09-02 21:00:00 19.8 6 Este 13 Este 0 -- -- 82
2019-09-02 20:00:00 21.9 3 Sur 12 Sudoeste 0 -- -- 72
2019-09-02 19:00:00 23.5 7 Sudoeste 15 Sur 0 -- -- 56
2019-09-02 18:00:00 24.7 3 Sur 10 Sudoeste 0 -- -- 51
2019-09-02 17:00:00 24.1 5 Sur 14 Sudoeste 0 -- -- 55
2019-09-02 16:00:00 23 5 Norte 15 Oeste 0 -- -- 62
2019-09-02 15:00:00 22.1 6 Noroeste 17 Sudoeste 0 -- -- 69
2019-09-02 14:00:00 21.6 8 Sudoeste 18 Oeste 0 -- -- 72
2019-09-02 13:00:00 20.8 8 Sur 16 Sudoeste 0 -- -- 72
2019-09-02 12:00:00 18.5 7 Sudoeste 14 Sur 0 -- -- 84
2019-09-02 11:00:00 17.1 10 Oeste 15 Sur 0 -- -- 92
2019-09-02 10:00:00 16.7 7 Oeste 14 Sudoeste 0 -- -- 93
2019-09-02 09:00:00 16.6 3 Sur 8 Sur 0 -- -- 95
2019-09-02 08:00:00 16.7 2 Sur 5 Sudoeste 0 -- -- 96
2019-09-02 07:00:00 17 2 Sur 18 Oeste 0 -- -- 94
2019-09-02 06:00:00 17.2 6 Noroeste 18 Oeste 0 -- -- 95
2019-09-02 05:00:00 16.5 0 Calma 11 Nordeste 0 -- -- 98
2019-09-02 04:00:00 16.7 4 Nordeste 14 Noroeste 3.4 -- -- 98
2019-09-02 03:00:00 16.8 4 Este 9 Este 5.4 -- -- 97
2019-09-02 02:00:00 16.9 0 Calma 6 Nordeste 3 -- -- 95
2019-09-02 01:00:00 17.1 3 Norte 14 Nordeste 4 -- -- 96
2019-09-02 00:00:00 17 5 Este 12 Nordeste 2.8 -- -- 94
2019-09-01 23:00:00 17.6 11 Sudeste 28 Este 5.2 -- -- 91
2019-09-01 22:00:00 19.8 5 Este 18 Este 0 -- -- 74
2019-09-01 21:00:00 21 9 Nordeste 23 Este 0 -- -- 74
2019-09-01 20:00:00 23.3 6 Sur 26 Sur 0 -- -- 73
2019-09-01 19:00:00 25.8 12 Sur 28 Sur 0 -- -- 64
2019-09-01 18:00:00 28.2 4 Sur 13 Sur 0 -- -- 45
2019-09-01 17:00:00 28.1 9 Sudoeste 19 Sudoeste 0 -- -- 45
2019-09-01 16:00:00 27.9 4 Sur 18 Sur 0 -- -- 45
2019-09-01 15:00:00 28.5 4 Sudeste 17 Sur 0 -- -- 43
2019-09-01 14:00:00 26.7 4 Sur 19 Oeste 0 -- -- 49
2019-09-01 13:00:00 23.9 8 Oeste 13 Oeste 0 -- -- 61
2019-09-01 12:00:00 23.8 4 Oeste 12 Oeste 0 -- -- 60
2019-09-01 11:00:00 24.6 3 Sur 8 Sur 0 -- -- 57
2019-09-01 10:00:00 23.9 3 Sudoeste 6 Sudoeste 0 -- -- 55
2019-09-01 09:00:00 20.6 2 Este 5 Noroeste 0 -- -- 68
2019-09-01 08:00:00 15.9 5 Noroeste 6 Noroeste 0 -- -- 86
2019-09-01 07:00:00 15.4 5 Noroeste 8 Noroeste 0 -- -- 86
2019-09-01 06:00:00 15.9 4 Norte 7 Noroeste 0 -- -- 83
2019-09-01 05:00:00 15.9 6 Noroeste 7 Noroeste 0 -- -- 84
2019-09-01 04:00:00 16.8 5 Noroeste 9 Noroeste 0 -- -- 79
2019-09-01 03:00:00 18.9 6 Noroeste 13 Nordeste 0 -- -- 69
2019-09-01 02:00:00 20.3 5 Nordeste 18 Nordeste 0 -- -- 62
2019-09-01 01:00:00 20.7 8 Nordeste 20 Nordeste 0 -- -- 59
2019-09-01 00:00:00 20.2 6 Norte 21 Norte 0 -- -- 63
2019-08-31 23:00:00 19.9 8 Nordeste 20 Nordeste 0 -- -- 66
2019-08-31 22:00:00 18.7 3 Norte 15 Nordeste 0 -- -- 79
2019-08-31 21:00:00 19.3 3 Norte 18 Noroeste 0.2 -- -- 80
2019-08-31 20:00:00 19.8 4 Norte 24 Norte 1 -- -- 78
2019-08-31 19:00:00 22.5 13 Noroeste 32 Oeste 0 -- -- 61
2019-08-31 18:00:00 24.2 18 Oeste 28 Sudoeste 0 -- -- 54
2019-08-31 17:00:00 27.3 3 Sur 18 Sudeste 0 -- -- 53
2019-08-31 16:00:00 26.1 10 Nordeste 23 Este 0 -- -- 46
2019-08-31 15:00:00 25.7 17 Este 41 Este 1.6 -- -- 44
2019-08-31 14:00:00 31.4 6 Este 21 Sur 0 -- -- 33
2019-08-31 13:00:00 30.4 5 Este 14 Sudoeste 0 -- -- 36
2019-08-31 12:00:00 29.2 3 Oeste 11 Sur 0 -- -- 39
2019-08-31 11:00:00 28.1 3 Sudeste 13 Este 0 -- -- 43
2019-08-31 10:00:00 25.7 7 Nordeste 14 Este 0 -- -- 48
2019-08-31 09:00:00 22.3 4 Nordeste 8 Norte 0 -- -- 59
2019-08-31 08:00:00 16.9 3 Norte 6 Noroeste 0 -- -- 84
2019-08-31 07:00:00 16.3 5 Noroeste 6 Noroeste 0 -- -- 89
2019-08-31 06:00:00 16.2 4 Norte 6 Noroeste 0 -- -- 88
2019-08-31 05:00:00 16.6 5 Noroeste 7 Noroeste 0 -- -- 88
2019-08-31 04:00:00 17.1 5 Noroeste 6 Noroeste 0 -- -- 87
2019-08-31 03:00:00 17.3 5 Noroeste 6 Noroeste 0 -- -- 90
2019-08-31 02:00:00 17.8 5 Noroeste 7 Noroeste 0 -- -- 89
2019-08-31 01:00:00 18.2 5 Noroeste 7 Norte 0 -- -- 88
2019-08-31 00:00:00 19.3 3 Norte 5 Noroeste 0 -- -- 84
2019-08-30 23:00:00 21.2 0 Calma 8 Noroeste 0 -- -- 76
2019-08-30 22:00:00 22.2 4 Noroeste 6 Noroeste 0 -- -- 72
2019-08-30 21:00:00 23.1 0 Calma 5 Sudoeste 0 -- -- 70
2019-08-30 20:00:00 23.9 0 Calma 8 Este 0 -- -- 65
2019-08-30 19:00:00 24.9 0 Calma 9 Este 0 -- -- 61
2019-08-30 18:00:00 25.4 4 Oeste 22 Norte 0 -- -- 52
2019-08-30 17:00:00 27 12 Nordeste 26 Este 0 -- -- 48
2019-08-30 16:00:00 31.6 3 Oeste 12 Oeste 0 -- -- 31
2019-08-30 15:00:00 30.3 5 Sudoeste 15 Sudoeste 0 -- -- 36
2019-08-30 14:00:00 29.9 4 Sudoeste 18 Sur 0 -- -- 39
2019-08-30 13:00:00 29 4 Oeste 16 Sur 0 -- -- 41
2019-08-30 12:00:00 28.4 4 Sur 12 Sudoeste 0 -- -- 46
2019-08-30 11:00:00 26.7 3 Sur 10 Sur 0 -- -- 53
2019-08-30 10:00:00 25.4 3 Este 7 Nordeste 0 -- -- 59
2019-08-30 09:00:00 20.9 0 Calma 5 Norte 0 -- -- 77
2019-08-30 08:00:00 16.7 2 Noroeste 6 Norte 0 -- -- 94
2019-08-30 07:00:00 16.7 0 Calma 5 Noroeste 0 -- -- 92
2019-08-30 06:00:00 16.9 3 Noroeste 6 Noroeste 0 -- -- 93
2019-08-30 05:00:00 17.3 5 Noroeste 6 Noroeste 0 -- -- 92
2019-08-30 04:00:00 17.8 4 Noroeste 7 Noroeste 0 -- -- 91
2019-08-30 03:00:00 18.2 2 Norte 6 Noroeste 0 -- -- 91
2019-08-30 02:00:00 18.5 4 Noroeste 6 Noroeste 0 -- -- 90
2019-08-30 01:00:00 19.7 2 Nordeste 8 Norte 0 -- -- 85
2019-08-30 00:00:00 20.2 3 Norte 9 Norte 0 -- -- 83
2019-08-29 23:00:00 20 3 Noroeste 9 Noroeste 0 -- -- 88
2019-08-29 22:00:00 20.7 6 Oeste 9 Noroeste 0 -- -- 80
2019-08-29 21:00:00 20.8 2 Norte 12 Noroeste 0.2 -- -- 81
2019-08-29 20:00:00 21.2 3 Norte 12 Noroeste 2.2 -- -- 86
2019-08-29 19:00:00 24.2 5 Norte 33 Este 0 -- -- 61
2019-08-29 18:00:00 29.6 10 Sur 27 Sudoeste 0 -- -- 43
2019-08-29 17:00:00 29.7 11 Sudoeste 18 Sur 0 -- -- 42
2019-08-29 16:00:00 30.3 5 Noroeste 14 Sur 0 -- -- 41
2019-08-29 15:00:00 30.2 4 Sur 15 Sudoeste 0 -- -- 43
2019-08-29 14:00:00 28.9 4 Sur 24 Sudoeste 0 -- -- 44
2019-08-29 13:00:00 27.5 8 Sudoeste 24 Sur 0 -- -- 49
2019-08-29 12:00:00 26.5 7 Sur 20 Sudoeste 0 -- -- 52
2019-08-29 11:00:00 25.1 4 Sur 13 Sur 0 -- -- 59
2019-08-29 10:00:00 23.3 3 Sur 8 Este 0 -- -- 65
2019-08-29 09:00:00 20.6 4 Nordeste 7 Nordeste 0 -- -- 79
2019-08-29 08:00:00 16.3 0 Calma 5 Norte 0 -- -- 96
2019-08-29 07:00:00 16.2 0 Calma 6 Norte 0 -- -- 94
2019-08-29 06:00:00 15.9 4 Noroeste 6 Noroeste 0 -- -- 94
2019-08-29 05:00:00 16.2 3 Noroeste 5 Noroeste 0 -- -- 94
2019-08-29 04:00:00 16.9 4 Noroeste 5 Noroeste 0 -- -- 92
2019-08-29 03:00:00 16.9 4 Noroeste 5 Noroeste 0 -- -- 91
2019-08-29 02:00:00 17.7 4 Noroeste 5 Noroeste 0 -- -- 89
2019-08-29 01:00:00 19.4 0 Calma 6 Oeste 0 -- -- 84
2019-08-29 00:00:00 20.2 5 Noroeste 8 Noroeste 0 -- -- 82
2019-08-28 23:00:00 21.9 4 Sudoeste 7 Sur 0 -- -- 75
2019-08-28 22:00:00 22.7 3 Sudoeste 9 Este 0 -- -- 70
2019-08-28 21:00:00 23.5 3 Sudeste 14 Este 0 -- -- 69
2019-08-28 20:00:00 25.2 5 Sur 13 Sur 0 -- -- 61
2019-08-28 19:00:00 27.7 2 Sur 11 Sur 0 -- -- 44
2019-08-28 18:00:00 28.4 5 Este 10 Sur 0 -- -- 42
2019-08-28 17:00:00 27.7 3 Sur 9 Este 0 -- -- 43
2019-08-28 16:00:00 27.3 3 Sur 9 Este 0 -- -- 45
2019-08-28 15:00:00 26.4 2 Sudeste 22 Oeste 0 -- -- 47
2019-08-28 14:00:00 26.9 6 Sudoeste 17 Sur 0 -- -- 47
2019-08-28 13:00:00 25.9 6 Oeste 16 Sudoeste 0 -- -- 51
2019-08-28 12:00:00 24.7 3 Sur 10 Oeste 0 -- -- 54
2019-08-28 11:00:00 23.2 5 Noroeste 10 Sur 0 -- -- 61
2019-08-28 10:00:00 22.3 2 Sur 6 Nordeste 0 -- -- 65
2019-08-28 09:00:00 19.7 4 Nordeste 8 Nordeste 0 -- -- 76
2019-08-28 08:00:00 16.6 0 Calma 6 Noroeste 0 -- -- 90
2019-08-28 07:00:00 15.1 4 Noroeste 7 Noroeste 0 -- -- 94
2019-08-28 06:00:00 15.3 4 Noroeste 6 Noroeste 0 -- -- 93
2019-08-28 05:00:00 16.1 5 Noroeste 9 Noroeste 0 -- -- 90
2019-08-28 04:00:00 16.9 4 Nordeste 10 Nordeste 0 -- -- 88
2019-08-28 03:00:00 16.2 5 Noroeste 6 Noroeste 0 -- -- 88
2019-08-28 02:00:00 17.5 2 Norte 6 Noroeste 0 -- -- 85
2019-08-28 01:00:00 17.7 3 Noroeste 11 Nordeste 0 -- -- 81
2019-08-28 00:00:00 18.9 3 Norte 10 Nordeste 0 -- -- 78
2019-08-27 23:00:00 19.9 3 Norte 7 Nordeste 0 -- -- 75
2019-08-27 22:00:00 20.2 2 Norte 8 Oeste 0 -- -- 75
2019-08-27 21:00:00 20.5 8 Oeste 11 Oeste 0 -- -- 73
2019-08-27 20:00:00 21.6 7 Oeste 13 Sudoeste 0 -- -- 70
2019-08-27 19:00:00 22.7 6 Sudoeste 10 Sur 0 -- -- 65
2019-08-27 18:00:00 22.4 4 Sur 10 Sur 0 -- -- 69
2019-08-27 17:00:00 22.7 4 Sur 12 Sur 0 -- -- 69
2019-08-27 16:00:00 22.5 3 Sudeste 7 Este 0 -- -- 64
2019-08-27 15:00:00 22 5 Este 14 Este 0 -- -- 64
2019-08-27 14:00:00 21.9 8 Este 15 Este 0 -- -- 61
2019-08-27 13:00:00 23.6 5 Este 21 Este 0 -- -- 55
2019-08-27 12:00:00 22.4 8 Este 17 Este 0 -- -- 58
2019-08-27 11:00:00 22.1 3 Nordeste 12 Nordeste 0 -- -- 58
2019-08-27 10:00:00 19.4 4 Nordeste 15 Nordeste 0 -- -- 70
2019-08-27 09:00:00 18.1 5 Nordeste 10 Nordeste 0 -- -- 80
2019-08-27 08:00:00 18 3 Norte 12 Norte 0.2 -- -- 82
2019-08-27 07:00:00 18.3 0 Calma 4 Este 0 -- -- 79
2019-08-27 06:00:00 18.5 4 Noroeste 19 Sur 0 -- -- 78
2019-08-27 05:00:00 19.2 2 Sur 11 Noroeste 0 -- -- 71
2019-08-27 04:00:00 19.4 7 Nordeste 15 Nordeste 0 -- -- 71
2019-08-27 03:00:00 18.9 3 Noroeste 13 Nordeste 0 -- -- 78
2019-08-27 02:00:00 19.3 2 Noroeste 12 Oeste 0 -- -- 79
2019-08-27 01:00:00 18.9 2 Sudoeste 5 Norte 0 -- -- 76
2019-08-27 00:00:00 19.4 3 Noroeste 7 Noroeste 0 -- -- 73
2019-08-26 23:00:00 21.1 5 Oeste 13 Oeste 0 -- -- 70
2019-08-26 22:00:00 21.3 4 Oeste 8 Oeste 0 -- -- 61
2019-08-26 21:00:00 24 0 Calma 8 Sudoeste 0 -- -- 49
2019-08-26 20:00:00 26.8 2 Sur 14 Este 0 -- -- 35
2019-08-26 19:00:00 27.4 4 Sudeste 15 Sudoeste 0 -- -- 38
2019-08-26 18:00:00 28 7 Sur 20 Sudoeste 0 -- -- 38
2019-08-26 17:00:00 28.5 7 Sur 29 Sur 0 -- -- 36
2019-08-26 16:00:00 29.9 15 Sur 32 Sur 0 -- -- 28
2019-08-26 15:00:00 31.3 7 Sur 23 Sudoeste 0 -- -- 28
2019-08-26 14:00:00 30.4 6 Sudoeste 19 Oeste 0 -- -- 27
2019-08-26 13:00:00 29.1 5 Sur 15 Sudoeste 0 -- -- 27
2019-08-26 12:00:00 28.1 3 Sudoeste 12 Oeste 0 -- -- 32
2019-08-26 11:00:00 27.2 3 Sudeste 10 Este 0 -- -- 34
2019-08-26 10:00:00 25.1 3 Nordeste 7 Nordeste 0 -- -- 40
2019-08-26 09:00:00 21.6 0 Calma 9 Norte 0 -- -- 50
2019-08-26 08:00:00 20.2 5 Nordeste 12 Norte 0 -- -- 51
2019-08-26 07:00:00 19.7 5 Nordeste 12 Nordeste 0 -- -- 56
2019-08-26 06:00:00 15.4 3 Nordeste 8 Norte 0 -- -- 80
2019-08-26 05:00:00 15.7 4 Noroeste 6 Noroeste 0 -- -- 83
2019-08-26 04:00:00 16.2 3 Norte 5 Noroeste 0 -- -- 81
2019-08-26 03:00:00 16.5 4 Noroeste 7 Norte 0 -- -- 82
2019-08-26 02:00:00 17.3 3 Norte 5 Noroeste 0 -- -- 79
2019-08-26 01:00:00 18.8 0 Calma 5 Norte 0 -- -- 73
2019-08-26 00:00:00 19.5 2 Noroeste 6 Noroeste 0 -- -- 70
2019-08-25 23:00:00 20.3 4 Noroeste 6 Noroeste 0 -- -- 72
2019-08-25 22:00:00 22.7 3 Norte 5 Norte 0 -- -- 61
2019-08-25 21:00:00 25 3 Sur 12 Sur 0 -- -- 52
2019-08-25 20:00:00 26.9 5 Sur 19 Sur 0 -- -- 39
2019-08-25 19:00:00 29.1 6 Sur 15 Sur 0 -- -- 38
2019-08-25 18:00:00 31 6 Sur 20 Sur 0 -- -- 37
2019-08-25 17:00:00 31.6 7 Sur 19 Sur 0 -- -- 37
2019-08-25 16:00:00 32.9 5 Sur 16 Este 0 -- -- 33
2019-08-25 15:00:00 31.7 8 Sudoeste 18 Sudoeste 0 -- -- 25
2019-08-25 14:00:00 30.6 6 Sur 16 Sudoeste 0 -- -- 29
2019-08-25 13:00:00 29.7 8 Sudoeste 14 Sur 0 -- -- 33
2019-08-25 12:00:00 28.4 4 Este 11 Norte 0 -- -- 38
2019-08-25 11:00:00 26 3 Sudoeste 9 Sudoeste 0 -- -- 55
2019-08-25 10:00:00 24.1 3 Sudoeste 6 Oeste 0 -- -- 63
2019-08-25 09:00:00 20.9 0 Calma 5 Noroeste 0 -- -- 73
2019-08-25 08:00:00 16.3 3 Noroeste 6 Norte 0 -- -- 92
2019-08-25 07:00:00 15.6 3 Noroeste 7 Norte 0 -- -- 91
2019-08-25 06:00:00 15.9 4 Noroeste 5 Norte 0 -- -- 90
2019-08-25 05:00:00 16.3 5 Noroeste 6 Noroeste 0 -- -- 90
2019-08-25 04:00:00 17 3 Noroeste 6 Noroeste 0 -- -- 87
2019-08-25 03:00:00 17.3 4 Noroeste 8 Noroeste 0 -- -- 86
2019-08-25 02:00:00 17.8 5 Noroeste 7 Norte 0 -- -- 85
2019-08-25 01:00:00 19 2 Norte 5 Norte 0 -- -- 78
2019-08-25 00:00:00 20 3 Noroeste 6 Sur 0 -- -- 76
2019-08-24 23:00:00 21.6 0 Calma 6 Sudoeste 0 -- -- 70
2019-08-24 22:00:00 23 0 Calma 7 Oeste 0 -- -- 63
2019-08-24 21:00:00 24.1 2 Sur 10 Este 0 -- -- 59
2019-08-24 20:00:00 25.7 3 Sur 11 Sur 0 -- -- 55
2019-08-24 19:00:00 27.8 5 Sur 18 Sudoeste 0 -- -- 49
2019-08-24 18:00:00 28 5 Sur 20 Sur 0 -- -- 48
2019-08-24 17:00:00 30.1 5 Sur 20 Sudoeste 0 -- -- 38
2019-08-24 16:00:00 30.2 4 Sur 19 Sudoeste 0 -- -- 39
2019-08-24 15:00:00 30.1 8 Sudoeste 20 Sur 0 -- -- 39
2019-08-24 14:00:00 28.6 5 Sur 24 Sudoeste 0 -- -- 43
2019-08-24 13:00:00 27.5 13 Sudoeste 22 Sudoeste 0 -- -- 42
2019-08-24 12:00:00 26.3 5 Sur 17 Sudoeste 0 -- -- 50
2019-08-24 11:00:00 24.7 5 Sudoeste 12 Sudoeste 0 -- -- 58
2019-08-24 10:00:00 23.1 3 Sur 6 Sur 0 -- -- 66
2019-08-24 09:00:00 20.6 0 Calma 5 Este 0 -- -- 75
2019-08-24 08:00:00 16.1 4 Noroeste 6 Noroeste 0 -- -- 94
2019-08-24 07:00:00 15.8 4 Noroeste 7 Noroeste 0 -- -- 93
2019-08-24 06:00:00 16.1 3 Noroeste 6 Noroeste 0 -- -- 91
2019-08-24 05:00:00 16.4 4 Noroeste 6 Noroeste 0 -- -- 91
2019-08-24 04:00:00 16.8 3 Norte 5 Noroeste 0 -- -- 90
2019-08-24 03:00:00 17.1 4 Noroeste 6 Noroeste 0 -- -- 89
2019-08-24 02:00:00 18 3 Noroeste 4 Noroeste 0 -- -- 85
2019-08-24 01:00:00 18.1 2 Norte 5 Noroeste 0 -- -- 86
2019-08-24 00:00:00 19.6 3 Noroeste 5 Noroeste 0 -- -- 80
2019-08-23 23:00:00 20.3 3 Norte 6 Noroeste 0 -- -- 74
2019-08-23 22:00:00 21.8 2 Oeste 6 Sur 0 -- -- 68
2019-08-23 21:00:00 23.6 3 Sur 8 Sur 0 -- -- 60
2019-08-23 20:00:00 26.1 3 Sur 18 Sur 0 -- -- 54
2019-08-23 19:00:00 28 7 Sur 25 Sudoeste 0 -- -- 48
2019-08-23 18:00:00 29.8 11 Sur 23 Sur 0 -- -- 41
2019-08-23 17:00:00 30.5 7 Sur 19 Sur 0 -- -- 33
2019-08-23 16:00:00 30.4 6 Sur 16 Sudoeste 0 -- -- 37
2019-08-23 15:00:00 29.2 3 Sudeste 19 Sur 0 -- -- 37
2019-08-23 14:00:00 27.8 6 Sur 18 Sur 0 -- -- 43
2019-08-23 13:00:00 27.4 6 Oeste 11 Noroeste 0 -- -- 42
2019-08-23 12:00:00 26 4 Sur 13 Sur 0 -- -- 49
2019-08-23 11:00:00 25 3 Sur 9 Sur 0 -- -- 49
2019-08-23 10:00:00 23.2 2 Sudeste 5 Este 0 -- -- 50
2019-08-23 09:00:00 19.4 2 Noroeste 4 Oeste 0 -- -- 64
2019-08-23 08:00:00 14.7 4 Noroeste 6 Norte 0 -- -- 88
2019-08-23 07:00:00 14.6 5 Noroeste 9 Sur 0 -- -- 83
2019-08-23 06:00:00 14.7 3 Norte 7 Noroeste 0 -- -- 85
2019-08-23 05:00:00 14.5 4 Norte 7 Noroeste 0 -- -- 89
2019-08-23 04:00:00 14.7 5 Noroeste 7 Noroeste 0 -- -- 87
2019-08-23 03:00:00 15.5 5 Noroeste 6 Noroeste 0 -- -- 87
2019-08-23 02:00:00 16.5 4 Noroeste 6 Noroeste 0 -- -- 88
2019-08-23 01:00:00 17.2 4 Noroeste 6 Noroeste 0 -- -- 86
2019-08-23 00:00:00 17.3 3 Noroeste 6 Noroeste 0 -- -- 86
2019-08-22 23:00:00 18.1 5 Noroeste 7 Noroeste 0 -- -- 83
2019-08-22 22:00:00 19.8 2 Noroeste 4 Norte 0 -- -- 77
2019-08-22 21:00:00 22.9 2 Sur 7 Sur 0 -- -- 59
2019-08-22 20:00:00 24.4 4 Sur 10 Sur 0 -- -- 55
2019-08-22 19:00:00 25.2 3 Sur 12 Sudoeste 0 -- -- 52
2019-08-22 18:00:00 27.2 4 Sur 13 Sur 0 -- -- 47
2019-08-22 17:00:00 29.3 4 Sur 16 Sur 0 -- -- 39
2019-08-22 16:00:00 28.8 6 Sur 22 Sur 0 -- -- 40
2019-08-22 15:00:00 27.6 5 Sudoeste 14 Sudoeste 0 -- -- 41
2019-08-22 14:00:00 26.5 6 Sudoeste 17 Sudoeste 0 -- -- 47
2019-08-22 13:00:00 25.1 4 Sur 14 Sur 0 -- -- 60
2019-08-22 12:00:00 23.1 2 Sur 9 Sur 0 -- -- 72
2019-08-22 11:00:00 21.9 3 Sur 8 Sur 0 -- -- 79
2019-08-22 10:00:00 20.2 3 Sur 6 Sudoeste 0 -- -- 87
2019-08-22 09:00:00 18.5 2 Sur 4 Sudoeste 0 -- -- 95
2019-08-22 08:00:00 16.5 0 Calma 8 Noroeste 0 -- -- 98
2019-08-22 07:00:00 16.1 2 Norte 5 Noroeste 0 -- -- 98
2019-08-22 06:00:00 16.2 4 Noroeste 6 Noroeste 0 -- -- 97
2019-08-22 05:00:00 16.9 3 Noroeste 6 Noroeste 0 -- -- 96
2019-08-22 04:00:00 17.4 4 Noroeste 5 Noroeste 0 -- -- 97
2019-08-22 03:00:00 17.7 2 Noroeste 6 Noroeste 0 -- -- 96
2019-08-22 02:00:00 18.2 3 Noroeste 6 Norte 0 -- -- 96
2019-08-22 01:00:00 18.8 2 Norte 6 Noroeste 0 -- -- 95
2019-08-22 00:00:00 19 0 Calma 4 Noroeste 0 -- -- 95
2019-08-21 23:00:00 18.8 3 Noroeste 7 Noroeste 0.2 -- -- 95
2019-08-21 22:00:00 19.1 3 Noroeste 12 Sur 15 -- -- 93
2019-08-21 21:00:00 21.2 4 Sur 12 Sur 0.4 -- -- 80
2019-08-21 20:00:00 22.7 4 Sur 10 Sur 0 -- -- 69
2019-08-21 19:00:00 24.4 5 Sur 26 Sur 0 -- -- 63
2019-08-21 18:00:00 28.1 10 Sur 28 Sur 0 -- -- 49
2019-08-21 17:00:00 29.6 5 Sudeste 17 Sudoeste 0 -- -- 27
2019-08-21 16:00:00 28.2 4 Este 13 Sudoeste 0 -- -- 28
2019-08-21 15:00:00 27.2 5 Sur 21 Sur 0 -- -- 34
2019-08-21 14:00:00 26.6 3 Sudeste 16 Sudoeste 0 -- -- 39
2019-08-21 13:00:00 24.8 4 Nordeste 10 Este 0 -- -- 45
2019-08-21 12:00:00 22.7 4 Norte 9 Nordeste 0 -- -- 49
2019-08-21 11:00:00 20.7 3 Sudeste 10 Este 0 -- -- 69
2019-08-21 10:00:00 18.9 3 Sudeste 6 Este 0 -- -- 76
2019-08-21 09:00:00 16.6 3 Este 9 Nordeste 0 -- -- 90
2019-08-21 08:00:00 13.2 3 Nordeste 8 Nordeste 0 -- -- 99
2019-08-21 07:00:00 12 0 Calma 6 Norte 0 -- -- 98
2019-08-21 06:00:00 12.1 0 Calma 5 Norte 0 -- -- 97
2019-08-21 05:00:00 12.3 2 Noroeste 6 Norte 0 -- -- 97
2019-08-21 04:00:00 12.5 4 Noroeste 6 Norte 0 -- -- 96
2019-08-21 03:00:00 13.1 3 Noroeste 5 Noroeste 0 -- -- 96
2019-08-21 02:00:00 13.6 4 Noroeste 7 Norte 0 -- -- 96
2019-08-21 01:00:00 14.1 5 Norte 6 Norte 0 -- -- 95
2019-08-21 00:00:00 15 2 Norte 5 Norte 0 -- -- 92